Terminal Aerodrome Forecast
Issued by NWS

Home | Current Version | Previous Version | Graphics & Text | Print | Product List | Glossary On
Versions: 1 2 3 4 5 6 7 8 9 10 11 12 13 14 15 16 17
402
FTUS43 KMPX 221735
TAFRNH
TAF
KRNH 221735Z 2218/2318 VRB03KT P6SM SCT070 BKN110
     FM221900 01004KT P6SM SCT070 BKN110
     FM230100 33008KT P6SM SCT015 BKN025
     FM230300 32010KT P6SM SCT008 OVC015
     FM231500 02008KT P6SM SCT015 OVC025=

USA.gov is the U.S. government's official web portal to all federal, state and local government web resources and services.